sensor_id;sensor_type;location;lat;lon;timestamp;temperature;humidity
13264;DHT22;6700;51.988;7.646;2023-01-10T00:01:05;6.10;99.90
13264;DHT22;6700;51.988;7.646;2023-01-10T00:03:32;6.10;99.90
13264;DHT22;6700;51.988;7.646;2023-01-10T00:05:59;6.20;99.90
13264;DHT22;6700;51.988;7.646;2023-01-10T00:08:26;6.20;99.90
13264;DHT22;6700;51.988;7.646;2023-01-10T00:10:54;6.20;99.90
13264;DHT22;6700;51.988;7.646;2023-01-10T00:13:24;6.30;99.90
13264;DHT22;6700;51.988;7.646;2023-01-10T00:15:52;6.30;99.90
13264;DHT22;6700;51.988;7.646;2023-01-10T00:18:20;6.30;99.90
13264;DHT22;6700;51.988;7.646;2023-01-10T00:20:47;6.30;99.90
13264;DHT22;6700;51.988;7.646;2023-01-10T00:23:15;6.30;99.90
13264;DHT22;6700;51.988;7.646;2023-01-10T00:25:42;6.30;99.90
13264;DHT22;6700;51.988;7.646;2023-01-10T00:28:09;6.30;99.90
13264;DHT22;6700;51.988;7.646;2023-01-10T00:30:51;6.30;99.90
13264;DHT22;6700;51.988;7.646;2023-01-10T00:33:30;6.20;99.90
13264;DHT22;6700;51.988;7.646;2023-01-10T00:35:58;6.20;99.90
13264;DHT22;6700;51.988;7.646;2023-01-10T00:38:26;6.20;99.90
13264;DHT22;6700;51.988;7.646;2023-01-10T00:40:53;6.20;99.90
13264;DHT22;6700;51.988;7.646;2023-01-10T00:43:19;6.20;99.90
13264;DHT22;6700;51.988;7.646;2023-01-10T00:46:05;6.30;99.90
13264;DHT22;6700;51.988;7.646;2023-01-10T00:48:34;6.30;99.90
13264;DHT22;6700;51.988;7.646;2023-01-10T00:51:01;6.30;99.90
13264;DHT22;6700;51.988;7.646;2023-01-10T00:53:28;6.30;99.90
13264;DHT22;6700;51.988;7.646;2023-01-10T00:55:55;6.30;99.90
13264;DHT22;6700;51.988;7.646;2023-01-10T00:58:22;6.30;99.90
13264;DHT22;6700;51.988;7.646;2023-01-10T01:00:49;6.30;99.90
13264;DHT22;6700;51.988;7.646;2023-01-10T01:08:15;6.10;99.90
13264;DHT22;6700;51.988;7.646;2023-01-10T01:18:06;5.80;99.90
13264;DHT22;6700;51.988;7.646;2023-01-10T01:20:34;5.90;99.90
13264;DHT22;6700;51.988;7.646;2023-01-10T01:23:00;5.90;99.90
13264;DHT22;6700;51.988;7.646;2023-01-10T01:25:27;5.80;99.90
13264;DHT22;6700;51.988;7.646;2023-01-10T01:27:54;5.80;99.90
13264;DHT22;6700;51.988;7.646;2023-01-10T01:30:21;5.70;99.90
13264;DHT22;6700;51.988;7.646;2023-01-10T01:32:48;5.70;99.90
13264;DHT22;6700;51.988;7.646;2023-01-10T01:35:15;5.70;99.90
13264;DHT22;6700;51.988;7.646;2023-01-10T01:37:43;5.70;99.90
13264;DHT22;6700;51.988;7.646;2023-01-10T01:40:18;5.70;99.90
13264;DHT22;6700;51.988;7.646;2023-01-10T01:42:49;5.80;99.90
13264;DHT22;6700;51.988;7.646;2023-01-10T01:45:28;5.80;99.90
13264;DHT22;6700;51.988;7.646;2023-01-10T01:48:16;5.70;99.90
13264;DHT22;6700;51.988;7.646;2023-01-10T01:50:49;5.70;99.90
13264;DHT22;6700;51.988;7.646;2023-01-10T01:53:31;5.70;99.90
13264;DHT22;6700;51.988;7.646;2023-01-10T01:56:03;5.70;99.90
13264;DHT22;6700;51.988;7.646;2023-01-10T01:58:40;5.70;99.90
13264;DHT22;6700;51.988;7.646;2023-01-10T02:01:09;5.70;99.90
13264;DHT22;6700;51.988;7.646;2023-01-10T02:03:37;5.70;99.90
13264;DHT22;6700;51.988;7.646;2023-01-10T02:06:06;5.70;99.90
13264;DHT22;6700;51.988;7.646;2023-01-10T02:08:33;5.70;99.90
13264;DHT22;6700;51.988;7.646;2023-01-10T02:11:09;5.70;99.90
13264;DHT22;6700;51.988;7.646;2023-01-10T02:13:40;5.70;99.90
13264;DHT22;6700;51.988;7.646;2023-01-10T02:16:08;5.70;99.90
13264;DHT22;6700;51.988;7.646;2023-01-10T02:18:36;5.80;99.90
13264;DHT22;6700;51.988;7.646;2023-01-10T02:37:44;5.70;99.90
13264;DHT22;6700;51.988;7.646;2023-01-10T02:43:14;5.60;99.90
13264;DHT22;6700;51.988;7.646;2023-01-10T02:48:16;5.70;99.90
13264;DHT22;6700;51.988;7.646;2023-01-10T02:53:21;5.80;99.90
13264;DHT22;6700;51.988;7.646;2023-01-10T02:59:00;5.80;99.90
13264;DHT22;6700;51.988;7.646;2023-01-10T03:01:47;5.80;99.90
13264;DHT22;6700;51.988;7.646;2023-01-10T03:07:16;5.80;99.90
13264;DHT22;6700;51.988;7.646;2023-01-10T03:10:03;5.70;99.90
13264;DHT22;6700;51.988;7.646;2023-01-10T03:12:36;5.60;99.90
13264;DHT22;6700;51.988;7.646;2023-01-10T03:15:05;5.60;99.90
13264;DHT22;6700;51.988;7.646;2023-01-10T03:17:35;5.50;99.90
13264;DHT22;6700;51.988;7.646;2023-01-10T03:20:05;5.50;99.90
13264;DHT22;6700;51.988;7.646;2023-01-10T03:22:35;5.40;99.90
13264;DHT22;6700;51.988;7.646;2023-01-10T03:25:06;5.40;99.90
13264;DHT22;6700;51.988;7.646;2023-01-10T03:27:39;5.40;99.90
13264;DHT22;6700;51.988;7.646;2023-01-10T03:32:43;5.40;99.90
13264;DHT22;6700;51.988;7.646;2023-01-10T03:35:11;5.30;99.90
13264;DHT22;6700;51.988;7.646;2023-01-10T03:37:57;5.30;99.90
13264;DHT22;6700;51.988;7.646;2023-01-10T03:40:40;5.30;99.90
13264;DHT22;6700;51.988;7.646;2023-01-10T03:46:07;5.30;99.90
13264;DHT22;6700;51.988;7.646;2023-01-10T03:48:40;5.30;99.90
13264;DHT22;6700;51.988;7.646;2023-01-10T03:54:49;5.30;99.90
13264;DHT22;6700;51.988;7.646;2023-01-10T03:57:22;5.30;99.90
13264;DHT22;6700;51.988;7.646;2023-01-10T03:59:52;5.30;99.90
13264;DHT22;6700;51.988;7.646;2023-01-10T04:02:19;5.30;99.90
13264;DHT22;6700;51.988;7.646;2023-01-10T04:04:46;5.20;99.90
13264;DHT22;6700;51.988;7.646;2023-01-10T04:07:13;5.20;99.90
13264;DHT22;6700;51.988;7.646;2023-01-10T04:09:39;5.20;99.90
13264;DHT22;6700;51.988;7.646;2023-01-10T04:12:06;5.20;99.90
13264;DHT22;6700;51.988;7.646;2023-01-10T04:14:33;5.20;99.90
13264;DHT22;6700;51.988;7.646;2023-01-10T04:17:00;5.20;99.90
13264;DHT22;6700;51.988;7.646;2023-01-10T04:19:26;5.20;99.90
13264;DHT22;6700;51.988;7.646;2023-01-10T04:21:53;5.20;99.90
13264;DHT22;6700;51.988;7.646;2023-01-10T04:24:20;5.20;99.90
13264;DHT22;6700;51.988;7.646;2023-01-10T04:26:47;5.20;99.90
13264;DHT22;6700;51.988;7.646;2023-01-10T04:29:14;5.10;99.90
13264;DHT22;6700;51.988;7.646;2023-01-10T04:31:40;5.20;99.90
13264;DHT22;6700;51.988;7.646;2023-01-10T04:34:08;5.20;99.90
13264;DHT22;6700;51.988;7.646;2023-01-10T04:36:35;5.20;99.90
13264;DHT22;6700;51.988;7.646;2023-01-10T04:39:03;5.20;99.90
13264;DHT22;6700;51.988;7.646;2023-01-10T04:41:30;5.20;99.90
13264;DHT22;6700;51.988;7.646;2023-01-10T04:43:56;5.20;99.90
13264;DHT22;6700;51.988;7.646;2023-01-10T04:46:24;5.20;99.90
13264;DHT22;6700;51.988;7.646;2023-01-10T04:48:51;5.20;99.90
13264;DHT22;6700;51.988;7.646;2023-01-10T04:51:18;5.20;99.90
13264;DHT22;6700;51.988;7.646;2023-01-10T04:53:44;5.20;99.90
13264;DHT22;6700;51.988;7.646;2023-01-10T04:56:18;5.30;99.90
13264;DHT22;6700;51.988;7.646;2023-01-10T04:58:46;5.30;99.90
13264;DHT22;6700;51.988;7.646;2023-01-10T05:01:16;5.30;99.90
13264;DHT22;6700;51.988;7.646;2023-01-10T05:03:43;5.30;99.90
13264;DHT22;6700;51.988;7.646;2023-01-10T05:06:09;5.30;99.90
13264;DHT22;6700;51.988;7.646;2023-01-10T05:08:36;5.30;99.90
13264;DHT22;6700;51.988;7.646;2023-01-10T05:11:03;5.30;99.90
13264;DHT22;6700;51.988;7.646;2023-01-10T05:13:30;5.30;99.90
13264;DHT22;6700;51.988;7.646;2023-01-10T05:15:57;5.30;99.90
13264;DHT22;6700;51.988;7.646;2023-01-10T05:18:25;5.30;99.90
13264;DHT22;6700;51.988;7.646;2023-01-10T05:20:57;5.30;99.90
13264;DHT22;6700;51.988;7.646;2023-01-10T05:23:24;5.40;99.90
13264;DHT22;6700;51.988;7.646;2023-01-10T05:25:51;5.40;99.90
13264;DHT22;6700;51.988;7.646;2023-01-10T05:28:18;5.40;99.90
13264;DHT22;6700;51.988;7.646;2023-01-10T05:30:44;5.40;99.90
13264;DHT22;6700;51.988;7.646;2023-01-10T05:33:11;5.50;99.90
13264;DHT22;6700;51.988;7.646;2023-01-10T05:35:38;5.50;99.90
13264;DHT22;6700;51.988;7.646;2023-01-10T05:38:04;5.50;99.90
13264;DHT22;6700;51.988;7.646;2023-01-10T05:40:31;5.50;99.90
13264;DHT22;6700;51.988;7.646;2023-01-10T05:42:58;5.40;99.90
13264;DHT22;6700;51.988;7.646;2023-01-10T05:45:24;5.50;99.90
13264;DHT22;6700;51.988;7.646;2023-01-10T05:47:51;5.50;99.90
13264;DHT22;6700;51.988;7.646;2023-01-10T05:50:18;5.50;99.90
13264;DHT22;6700;51.988;7.646;2023-01-10T05:52:44;5.40;99.90
13264;DHT22;6700;51.988;7.646;2023-01-10T05:55:11;5.30;99.90
13264;DHT22;6700;51.988;7.646;2023-01-10T05:57:37;5.30;99.90
13264;DHT22;6700;51.988;7.646;2023-01-10T06:00:05;5.30;99.90
13264;DHT22;6700;51.988;7.646;2023-01-10T06:02:32;5.30;99.90
13264;DHT22;6700;51.988;7.646;2023-01-10T06:04:59;5.30;99.90
13264;DHT22;6700;51.988;7.646;2023-01-10T06:07:25;5.30;99.90
13264;DHT22;6700;51.988;7.646;2023-01-10T06:09:52;5.30;99.90
13264;DHT22;6700;51.988;7.646;2023-01-10T06:12:19;5.30;99.90
13264;DHT22;6700;51.988;7.646;2023-01-10T06:14:45;5.30;99.90
13264;DHT22;6700;51.988;7.646;2023-01-10T06:17:12;5.30;99.90
13264;DHT22;6700;51.988;7.646;2023-01-10T06:19:39;5.30;99.90
13264;DHT22;6700;51.988;7.646;2023-01-10T06:22:06;5.40;99.90
13264;DHT22;6700;51.988;7.646;2023-01-10T06:24:32;5.40;99.90
13264;DHT22;6700;51.988;7.646;2023-01-10T06:26:59;5.40;99.90
13264;DHT22;6700;51.988;7.646;2023-01-10T06:29:26;5.40;99.90
13264;DHT22;6700;51.988;7.646;2023-01-10T06:31:52;5.40;99.90
13264;DHT22;6700;51.988;7.646;2023-01-10T06:34:19;5.40;99.90
13264;DHT22;6700;51.988;7.646;2023-01-10T06:36:46;5.40;99.90
13264;DHT22;6700;51.988;7.646;2023-01-10T06:39:13;5.40;99.90
13264;DHT22;6700;51.988;7.646;2023-01-10T06:41:39;5.30;99.90
13264;DHT22;6700;51.988;7.646;2023-01-10T06:44:06;5.30;99.90
13264;DHT22;6700;51.988;7.646;2023-01-10T06:46:33;5.30;99.90
13264;DHT22;6700;51.988;7.646;2023-01-10T06:49:00;5.30;99.90
13264;DHT22;6700;51.988;7.646;2023-01-10T06:51:26;5.20;99.90
13264;DHT22;6700;51.988;7.646;2023-01-10T06:53:53;5.20;99.90
13264;DHT22;6700;51.988;7.646;2023-01-10T06:56:20;5.20;99.90
13264;DHT22;6700;51.988;7.646;2023-01-10T06:58:48;5.20;99.90
13264;DHT22;6700;51.988;7.646;2023-01-10T07:01:18;5.10;99.90
13264;DHT22;6700;51.988;7.646;2023-01-10T07:03:45;5.20;99.90
13264;DHT22;6700;51.988;7.646;2023-01-10T07:06:12;5.20;99.90
13264;DHT22;6700;51.988;7.646;2023-01-10T07:08:40;5.20;99.90
13264;DHT22;6700;51.988;7.646;2023-01-10T07:11:10;5.10;99.90
13264;DHT22;6700;51.988;7.646;2023-01-10T07:13:37;5.10;99.90
13264;DHT22;6700;51.988;7.646;2023-01-10T07:16:10;5.10;99.90
13264;DHT22;6700;51.988;7.646;2023-01-10T07:18:39;5.10;99.90
13264;DHT22;6700;51.988;7.646;2023-01-10T07:21:06;5.10;99.90
13264;DHT22;6700;51.988;7.646;2023-01-10T07:23:33;5.10;99.90
13264;DHT22;6700;51.988;7.646;2023-01-10T07:26:04;5.00;99.90
13264;DHT22;6700;51.988;7.646;2023-01-10T07:28:32;5.00;99.90
13264;DHT22;6700;51.988;7.646;2023-01-10T07:31:01;5.00;99.90
13264;DHT22;6700;51.988;7.646;2023-01-10T07:33:29;5.00;99.90
13264;DHT22;6700;51.988;7.646;2023-01-10T07:35:56;5.00;99.90
13264;DHT22;6700;51.988;7.646;2023-01-10T07:38:23;5.00;99.90
13264;DHT22;6700;51.988;7.646;2023-01-10T07:40:49;5.10;99.90
13264;DHT22;6700;51.988;7.646;2023-01-10T07:43:16;5.20;99.90
13264;DHT22;6700;51.988;7.646;2023-01-10T07:45:43;5.20;99.90
13264;DHT22;6700;51.988;7.646;2023-01-10T07:48:10;5.20;99.90
13264;DHT22;6700;51.988;7.646;2023-01-10T07:50:37;5.20;99.90
13264;DHT22;6700;51.988;7.646;2023-01-10T07:53:06;5.30;99.90
13264;DHT22;6700;51.988;7.646;2023-01-10T07:55:35;5.30;99.90
13264;DHT22;6700;51.988;7.646;2023-01-10T07:58:05;5.30;99.90
13264;DHT22;6700;51.988;7.646;2023-01-10T08:00:34;5.40;99.90
13264;DHT22;6700;51.988;7.646;2023-01-10T08:03:01;5.40;99.90
13264;DHT22;6700;51.988;7.646;2023-01-10T08:05:28;5.50;99.90
13264;DHT22;6700;51.988;7.646;2023-01-10T08:07:54;5.50;99.90
13264;DHT22;6700;51.988;7.646;2023-01-10T08:10:25;5.50;99.90
13264;DHT22;6700;51.988;7.646;2023-01-10T08:12:52;5.50;99.90
13264;DHT22;6700;51.988;7.646;2023-01-10T08:15:19;5.50;99.90
13264;DHT22;6700;51.988;7.646;2023-01-10T08:17:46;5.60;99.90
13264;DHT22;6700;51.988;7.646;2023-01-10T08:20:12;5.60;99.90
13264;DHT22;6700;51.988;7.646;2023-01-10T08:22:39;5.60;99.90
13264;DHT22;6700;51.988;7.646;2023-01-10T08:25:06;5.60;99.90
13264;DHT22;6700;51.988;7.646;2023-01-10T08:27:33;5.60;99.90
13264;DHT22;6700;51.988;7.646;2023-01-10T08:30:00;5.70;99.90
13264;DHT22;6700;51.988;7.646;2023-01-10T08:32:26;5.70;99.90
13264;DHT22;6700;51.988;7.646;2023-01-10T08:34:53;5.70;99.90
13264;DHT22;6700;51.988;7.646;2023-01-10T08:37:20;5.70;99.90
13264;DHT22;6700;51.988;7.646;2023-01-10T08:39:47;5.70;99.90
13264;DHT22;6700;51.988;7.646;2023-01-10T08:42:13;5.70;99.90
13264;DHT22;6700;51.988;7.646;2023-01-10T08:44:42;5.70;99.90
13264;DHT22;6700;51.988;7.646;2023-01-10T08:47:09;5.70;99.90
13264;DHT22;6700;51.988;7.646;2023-01-10T08:49:35;5.80;99.90
13264;DHT22;6700;51.988;7.646;2023-01-10T08:52:02;5.80;99.90
13264;DHT22;6700;51.988;7.646;2023-01-10T08:54:29;5.90;99.90
13264;DHT22;6700;51.988;7.646;2023-01-10T08:56:55;5.90;99.90
13264;DHT22;6700;51.988;7.646;2023-01-10T08:59:22;5.90;99.90
13264;DHT22;6700;51.988;7.646;2023-01-10T09:01:49;5.90;99.90
13264;DHT22;6700;51.988;7.646;2023-01-10T09:04:16;5.90;99.90
13264;DHT22;6700;51.988;7.646;2023-01-10T09:06:43;5.90;99.90
13264;DHT22;6700;51.988;7.646;2023-01-10T09:09:09;5.90;99.90
13264;DHT22;6700;51.988;7.646;2023-01-10T09:11:36;5.90;99.90
13264;DHT22;6700;51.988;7.646;2023-01-10T09:14:03;5.90;99.90
13264;DHT22;6700;51.988;7.646;2023-01-10T09:16:29;5.90;99.90
13264;DHT22;6700;51.988;7.646;2023-01-10T09:18:56;6.00;99.90
13264;DHT22;6700;51.988;7.646;2023-01-10T09:21:23;6.00;99.90
13264;DHT22;6700;51.988;7.646;2023-01-10T09:23:51;6.00;99.90
13264;DHT22;6700;51.988;7.646;2023-01-10T09:26:17;6.10;99.90
13264;DHT22;6700;51.988;7.646;2023-01-10T09:28:46;6.10;99.90
13264;DHT22;6700;51.988;7.646;2023-01-10T09:31:14;6.00;99.90
13264;DHT22;6700;51.988;7.646;2023-01-10T09:33:41;6.10;99.90
13264;DHT22;6700;51.988;7.646;2023-01-10T09:36:13;6.00;99.90
13264;DHT22;6700;51.988;7.646;2023-01-10T09:38:41;6.00;99.90
13264;DHT22;6700;51.988;7.646;2023-01-10T09:51:55;6.10;99.90
13264;DHT22;6700;51.988;7.646;2023-01-10T09:54:28;6.20;99.90
13264;DHT22;6700;51.988;7.646;2023-01-10T09:56:57;6.20;99.90
13264;DHT22;6700;51.988;7.646;2023-01-10T09:59:35;6.30;99.90
13264;DHT22;6700;51.988;7.646;2023-01-10T10:07:35;6.40;99.90
13264;DHT22;6700;51.988;7.646;2023-01-10T10:10:06;6.50;99.90
13264;DHT22;6700;51.988;7.646;2023-01-10T10:20:53;6.70;99.90
13264;DHT22;6700;51.988;7.646;2023-01-10T10:35:50;7.30;99.90
13264;DHT22;6700;51.988;7.646;2023-01-10T10:37:51;7.30;99.90
13264;DHT22;6700;51.988;7.646;2023-01-10T10:40:21;7.20;99.90
13264;DHT22;6700;51.988;7.646;2023-01-10T10:46:07;7.30;99.90
13264;DHT22;6700;51.988;7.646;2023-01-10T10:48:58;7.30;99.90
13264;DHT22;6700;51.988;7.646;2023-01-10T10:51:50;7.40;99.90
13264;DHT22;6700;51.988;7.646;2023-01-10T10:54:18;7.30;99.90
13264;DHT22;6700;51.988;7.646;2023-01-10T10:56:46;7.40;99.90
13264;DHT22;6700;51.988;7.646;2023-01-10T10:59:17;7.40;99.90
13264;DHT22;6700;51.988;7.646;2023-01-10T11:01:45;7.40;99.90
13264;DHT22;6700;51.988;7.646;2023-01-10T11:04:18;7.40;99.90
13264;DHT22;6700;51.988;7.646;2023-01-10T11:06:46;7.50;99.90
13264;DHT22;6700;51.988;7.646;2023-01-10T11:09:21;7.50;99.90
13264;DHT22;6700;51.988;7.646;2023-01-10T11:11:57;7.50;99.90
13264;DHT22;6700;51.988;7.646;2023-01-10T11:14:43;7.50;99.90
13264;DHT22;6700;51.988;7.646;2023-01-10T11:17:25;7.50;99.90
13264;DHT22;6700;51.988;7.646;2023-01-10T11:20:00;7.50;99.90
13264;DHT22;6700;51.988;7.646;2023-01-10T11:22:43;7.50;99.90
13264;DHT22;6700;51.988;7.646;2023-01-10T11:25:17;7.50;99.90
13264;DHT22;6700;51.988;7.646;2023-01-10T11:27:56;7.50;99.90
13264;DHT22;6700;51.988;7.646;2023-01-10T11:30:29;7.60;99.90
13264;DHT22;6700;51.988;7.646;2023-01-10T11:32:59;7.60;99.90
13264;DHT22;6700;51.988;7.646;2023-01-10T11:35:37;7.60;99.90
13264;DHT22;6700;51.988;7.646;2023-01-10T11:43:39;7.60;99.90
13264;DHT22;6700;51.988;7.646;2023-01-10T11:46:16;7.50;99.90
13264;DHT22;6700;51.988;7.646;2023-01-10T11:48:46;7.40;99.90
13264;DHT22;6700;51.988;7.646;2023-01-10T11:51:38;7.40;99.90
13264;DHT22;6700;51.988;7.646;2023-01-10T11:56:59;7.40;99.90
13264;DHT22;6700;51.988;7.646;2023-01-10T11:59:27;7.50;99.90
13264;DHT22;6700;51.988;7.646;2023-01-10T12:02:01;7.50;99.90
13264;DHT22;6700;51.988;7.646;2023-01-10T12:04:31;7.50;99.90
13264;DHT22;6700;51.988;7.646;2023-01-10T12:07:06;7.50;99.90
13264;DHT22;6700;51.988;7.646;2023-01-10T12:09:36;7.40;99.90
13264;DHT22;6700;51.988;7.646;2023-01-10T12:14:44;7.40;99.90
13264;DHT22;6700;51.988;7.646;2023-01-10T12:19:44;7.40;99.90
13264;DHT22;6700;51.988;7.646;2023-01-10T12:22:13;7.40;99.90
13264;DHT22;6700;51.988;7.646;2023-01-10T12:24:43;7.40;99.90
13264;DHT22;6700;51.988;7.646;2023-01-10T12:27:12;7.30;99.90
13264;DHT22;6700;51.988;7.646;2023-01-10T12:29:48;7.30;99.90
13264;DHT22;6700;51.988;7.646;2023-01-10T12:35:00;7.40;99.90
13264;DHT22;6700;51.988;7.646;2023-01-10T12:37:40;7.40;99.90
13264;DHT22;6700;51.988;7.646;2023-01-10T12:40:33;7.40;99.90
13264;DHT22;6700;51.988;7.646;2023-01-10T12:43:11;7.40;99.90
13264;DHT22;6700;51.988;7.646;2023-01-10T12:46:19;7.50;99.90
13264;DHT22;6700;51.988;7.646;2023-01-10T12:52:09;7.50;99.90
13264;DHT22;6700;51.988;7.646;2023-01-10T12:54:38;7.50;99.90
13264;DHT22;6700;51.988;7.646;2023-01-10T12:57:17;7.50;99.90
13264;DHT22;6700;51.988;7.646;2023-01-10T12:59:47;7.50;99.90
13264;DHT22;6700;51.988;7.646;2023-01-10T13:02:21;7.50;99.90
13264;DHT22;6700;51.988;7.646;2023-01-10T13:04:54;7.50;99.90
13264;DHT22;6700;51.988;7.646;2023-01-10T13:07:26;7.50;99.90
13264;DHT22;6700;51.988;7.646;2023-01-10T13:09:54;7.50;99.90
13264;DHT22;6700;51.988;7.646;2023-01-10T13:12:31;7.50;99.90
13264;DHT22;6700;51.988;7.646;2023-01-10T13:17:45;7.40;99.90
13264;DHT22;6700;51.988;7.646;2023-01-10T13:23:00;7.40;99.90
13264;DHT22;6700;51.988;7.646;2023-01-10T13:25:31;7.40;99.90
13264;DHT22;6700;51.988;7.646;2023-01-10T13:30:56;7.40;99.90
13264;DHT22;6700;51.988;7.646;2023-01-10T13:33:27;7.30;99.90
13264;DHT22;6700;51.988;7.646;2023-01-10T13:36:07;7.40;99.90
13264;DHT22;6700;51.988;7.646;2023-01-10T13:38:55;7.40;99.90
13264;DHT22;6700;51.988;7.646;2023-01-10T13:41:23;7.40;99.90
